Time;durP1;ratioP1;P1;durP2;ratioP2;P2;SDS_P1;SDS_P2;PMS_P1;PMS_P2;Temp;Humidity;BMP_temperature;BMP_pressure;BME280_temperature;BME280_humidity;BME280_pressure;Samples;Min_cycle;Max_cycle;Signal;HPM_P1;HPM_P2
2021/05/23 00:01:06;;;;;;;12.38;8.70;;;10.40;99.90;;;;;;5057867;28;20099;-81
2021/05/23 00:03:33;;;;;;;12.50;8.45;;;10.40;99.90;;;;;;5055822;28;20082;-81
2021/05/23 00:05:59;;;;;;;11.65;7.82;;;10.40;99.90;;;;;;5057789;28;20443;-81
2021/05/23 00:08:26;;;;;;;10.25;7.75;;;10.50;99.90;;;;;;5055910;28;20029;-81
2021/05/23 00:10:59;;;;;;;11.32;8.32;;;10.50;99.90;;;;;;5056123;28;20023;-81
2021/05/23 00:13:31;;;;;;;14.27;7.57;;;10.40;99.90;;;;;;5054993;28;20472;-81
2021/05/23 00:15:58;;;;;;;9.15;7.28;;;10.50;99.90;;;;;;5060915;28;20039;-81
2021/05/23 00:18:25;;;;;;;9.95;6.70;;;10.50;99.90;;;;;;5056929;28;20100;-82
2021/05/23 00:20:52;;;;;;;11.48;7.13;;;10.50;99.90;;;;;;5057685;28;20021;-81
2021/05/23 00:23:17;;;;;;;8.77;6.28;;;10.50;99.90;;;;;;5070048;28;20451;-81
2021/05/23 00:25:43;;;;;;;8.60;6.30;;;10.50;99.90;;;;;;5054432;28;20029;-81
2021/05/23 00:28:10;;;;;;;8.18;6.60;;;10.50;99.90;;;;;;5054080;28;20028;-81
2021/05/23 00:30:36;;;;;;;11.20;6.63;;;10.60;99.90;;;;;;5053346;28;20049;-81
2021/05/23 00:33:04;;;;;;;10.77;7.05;;;10.60;99.90;;;;;;5057481;28;20452;-81
2021/05/23 00:35:29;;;;;;;12.20;6.38;;;10.60;99.90;;;;;;5056713;28;20025;-81
2021/05/23 00:37:56;;;;;;;9.90;6.35;;;10.50;99.90;;;;;;5057411;28;20033;-81
2021/05/23 00:40:22;;;;;;;13.25;6.32;;;10.60;99.90;;;;;;5055767;28;20029;-81
2021/05/23 00:42:48;;;;;;;8.90;6.57;;;10.60;99.90;;;;;;5055183;28;20025;-81
2021/05/23 00:45:16;;;;;;;10.75;7.53;;;10.50;99.90;;;;;;5070787;28;20081;-81
2021/05/23 00:47:43;;;;;;;8.02;6.75;;;10.50;99.90;;;;;;5054301;28;20024;-81
2021/05/23 00:50:11;;;;;;;8.02;6.20;;;10.50;99.90;;;;;;5059252;28;20020;-82
2021/05/23 00:52:37;;;;;;;10.45;6.25;;;10.50;99.90;;;;;;5056113;28;20025;-81
2021/05/23 00:55:04;;;;;;;9.20;7.47;;;10.60;99.90;;;;;;5057454;28;20024;-81
2021/05/23 00:57:30;;;;;;;10.95;7.60;;;10.60;99.90;;;;;;5055188;28;20021;-81
2021/05/23 00:59:56;;;;;;;8.55;6.72;;;10.50;99.90;;;;;;5054403;28;20107;-81
2021/05/23 01:02:41;;;;;;;11.23;6.93;;;10.50;99.90;;;;;;5054515;28;20096;-81
2021/05/23 01:05:09;;;;;;;10.95;6.78;;;10.60;99.90;;;;;;5055577;28;20017;-81
2021/05/23 01:07:34;;;;;;;10.43;6.65;;;10.50;99.90;;;;;;5056206;28;20118;-81
2021/05/23 01:10:17;;;;;;;6.30;5.20;;;10.50;99.90;;;;;;5069955;28;20471;-81
2021/05/23 01:12:52;;;;;;;11.20;6.35;;;10.60;99.90;;;;;;5054622;28;20443;-81
2021/05/23 01:15:32;;;;;;;7.60;5.25;;;10.50;99.90;;;;;;5056339;28;20021;-81
2021/05/23 01:18:01;;;;;;;6.93;5.50;;;10.50;99.90;;;;;;5056959;28;20029;-81
2021/05/23 01:21:04;;;;;;;6.53;5.50;;;10.50;99.90;;;;;;5055543;28;20021;-81
2021/05/23 01:23:33;;;;;;;6.25;5.18;;;10.50;99.90;;;;;;5063209;28;20118;-81
2021/05/23 01:26:06;;;;;;;8.38;5.05;;;10.40;99.90;;;;;;5055554;28;20095;-81
2021/05/23 01:28:35;;;;;;;7.72;5.32;;;10.40;99.90;;;;;;5069202;28;20048;-81
2021/05/23 01:31:05;;;;;;;7.30;5.70;;;10.40;99.90;;;;;;5053403;28;20514;-81
2021/05/23 01:33:30;;;;;;;;;;;10.50;99.90;;;;;;5058253;28;20439;-81
2021/05/23 01:35:58;;;;;;;7.90;5.28;;;10.40;99.90;;;;;;5070942;28;19905;-82
2021/05/23 01:38:25;;;;;;;7.25;5.45;;;10.40;99.90;;;;;;5056635;28;20476;-81
2021/05/23 01:40:55;;;;;;;7.45;5.57;;;10.30;99.90;;;;;;5054664;28;20036;-82
2021/05/23 01:43:21;;;;;;;8.18;5.18;;;10.40;99.90;;;;;;5054821;28;20049;-81
2021/05/23 01:45:47;;;;;;;8.40;5.75;;;10.40;99.90;;;;;;5053751;28;20058;-81
2021/05/23 01:48:12;;;;;;;8.00;5.22;;;10.40;99.90;;;;;;5059533;28;20033;-81
2021/05/23 01:50:39;;;;;;;7.93;5.53;;;10.40;99.90;;;;;;5055642;28;20491;-81
2021/05/23 01:53:05;;;;;;;5.97;5.05;;;10.40;99.90;;;;;;5055818;28;20377;-81
2021/05/23 01:55:32;;;;;;;8.15;5.47;;;10.50;99.90;;;;;;5055826;28;20021;-81
2021/05/23 01:57:58;;;;;;;6.80;5.55;;;10.50;99.90;;;;;;5054225;28;20376;-81
2021/05/23 02:00:35;;;;;;;8.38;5.15;;;10.50;99.90;;;;;;5054773;28;20024;-81
2021/05/23 02:03:04;;;;;;;10.85;6.78;;;10.50;99.90;;;;;;5053490;28;20499;-81
2021/05/23 02:05:30;;;;;;;12.57;7.78;;;10.50;99.90;;;;;;5055159;28;20052;-81
2021/05/23 02:07:55;;;;;;;11.35;7.18;;;10.50;99.90;;;;;;5054883;28;20059;-81
2021/05/23 02:10:21;;;;;;;9.95;7.57;;;10.60;99.90;;;;;;5053580;28;20025;-81
2021/05/23 02:12:47;;;;;;;10.95;8.30;;;10.50;99.90;;;;;;5053602;28;20013;-81
2021/05/23 02:15:18;;;;;;;12.93;8.90;;;10.60;99.90;;;;;;5052613;28;20028;-81
2021/05/23 02:17:46;;;;;;;14.55;8.65;;;10.50;99.90;;;;;;5058886;28;20024;-81
2021/05/23 02:20:15;;;;;;;12.43;8.48;;;10.50;99.90;;;;;;5054740;28;20013;-81
2021/05/23 02:22:42;;;;;;;10.35;8.13;;;10.60;99.90;;;;;;5055633;28;20020;-81
2021/05/23 02:25:09;;;;;;;12.77;9.88;;;10.50;99.90;;;;;;5052320;28;20116;-81
2021/05/23 02:27:40;;;;;;;16.17;11.77;;;10.60;99.90;;;;;;5053690;28;20037;-82
2021/05/23 02:30:11;;;;;;;17.38;13.35;;;10.50;99.90;;;;;;5052661;28;20013;-82
2021/05/23 02:32:37;;;;;;;20.17;16.05;;;10.50;99.90;;;;;;5052509;28;20078;-81
2021/05/23 02:35:04;;;;;;;18.70;15.23;;;10.40;99.90;;;;;;5056989;28;20021;-82
2021/05/23 02:37:29;;;;;;;28.00;21.15;;;10.40;99.90;;;;;;5054040;28;20036;-82
2021/05/23 02:39:55;;;;;;;27.55;21.23;;;10.40;99.90;;;;;;5055390;28;20196;-81
2021/05/23 02:42:21;;;;;;;29.48;22.33;;;10.40;99.90;;;;;;5068980;28;20468;-82
2021/05/23 02:44:46;;;;;;;29.10;21.80;;;10.40;99.90;;;;;;5052246;28;20017;-81
2021/05/23 02:47:12;;;;;;;27.23;20.55;;;10.40;99.90;;;;;;5052714;28;20020;-82
2021/05/23 02:49:42;;;;;;;24.48;18.95;;;10.40;99.90;;;;;;5052266;28;20033;-82
2021/05/23 02:52:10;;;;;;;26.35;19.65;;;10.40;99.90;;;;;;5056049;28;20510;-82
2021/05/23 02:54:36;;;;;;;22.63;17.60;;;10.40;99.90;;;;;;5056215;28;20070;-82
2021/05/23 02:57:02;;;;;;;26.55;19.80;;;10.50;99.90;;;;;;5061889;28;20024;-81
2021/05/23 02:59:28;;;;;;;30.58;21.23;;;10.50;99.90;;;;;;5059972;28;20029;-82
2021/05/23 03:01:53;;;;;;;28.30;21.88;;;10.50;99.90;;;;;;5060069;28;20032;-82
2021/05/23 03:04:19;;;;;;;39.58;28.25;;;10.50;99.90;;;;;;5059026;28;20048;-82
2021/05/23 03:06:44;;;;;;;41.15;28.08;;;10.50;99.90;;;;;;5060130;28;20021;-81
2021/05/23 03:09:10;;;;;;;41.95;28.33;;;10.50;99.90;;;;;;5060744;28;20506;-81
2021/05/23 03:11:36;;;;;;;39.05;28.83;;;10.40;99.90;;;;;;5059339;28;20479;-81
2021/05/23 03:14:01;;;;;;;41.70;30.42;;;10.40;99.90;;;;;;5057848;28;20119;-81
2021/05/23 03:16:27;;;;;;;47.53;32.65;;;10.40;99.90;;;;;;5062680;28;20495;-81
2021/05/23 03:18:52;;;;;;;50.22;33.33;;;10.40;99.90;;;;;;5059795;28;20024;-81
2021/05/23 03:21:18;;;;;;;54.65;36.00;;;10.30;99.90;;;;;;5077710;28;20483;-81
2021/05/23 03:23:43;;;;;;;57.90;37.65;;;10.30;99.90;;;;;;5060129;28;20476;-81
2021/05/23 03:26:09;;;;;;;60.70;39.00;;;10.30;99.90;;;;;;5059249;28;20016;-81
2021/05/23 03:28:34;;;;;;;62.03;39.63;;;10.30;99.90;;;;;;5059223;28;20040;-81
2021/05/23 03:31:00;;;;;;;62.22;40.35;;;10.30;99.90;;;;;;5060335;28;20048;-81
2021/05/23 03:33:26;;;;;;;65.75;42.08;;;10.20;99.90;;;;;;5076705;28;20543;-81
2021/05/23 03:35:51;;;;;;;58.55;38.15;;;10.20;99.90;;;;;;5076132;28;20472;-81
2021/05/23 03:38:17;;;;;;;56.33;38.20;;;10.20;99.90;;;;;;5062009;28;20519;-81
2021/05/23 03:40:42;;;;;;;60.00;38.53;;;10.20;99.90;;;;;;5060080;28;20380;-81
2021/05/23 03:43:09;;;;;;;61.17;39.88;;;10.20;99.90;;;;;;5060629;28;20060;-81
2021/05/23 03:45:35;;;;;;;61.63;39.47;;;10.20;99.90;;;;;;5064598;28;20497;-82
2021/05/23 03:48:02;;;;;;;60.47;39.33;;;10.20;99.90;;;;;;5058626;28;20380;-81
2021/05/23 03:50:27;;;;;;;62.22;40.22;;;10.20;99.90;;;;;;5061010;28;20016;-81
2021/05/23 03:52:55;;;;;;;60.15;38.40;;;10.20;99.90;;;;;;5060777;28;20013;-81
2021/05/23 03:55:22;;;;;;;63.00;40.00;;;10.20;99.90;;;;;;5062057;28;20017;-81
2021/05/23 03:57:48;;;;;;;59.95;39.13;;;10.20;99.90;;;;;;5059891;28;20017;-81
2021/05/23 04:00:15;;;;;;;61.20;39.88;;;10.20;99.90;;;;;;5060351;28;20027;-81
2021/05/23 04:02:45;;;;;;;62.45;40.25;;;10.20;99.90;;;;;;5059610;28;20045;-81
2021/05/23 04:05:11;;;;;;;63.05;40.42;;;10.20;99.90;;;;;;5060236;28;20443;-81
2021/05/23 04:07:36;;;;;;;62.58;40.95;;;10.20;99.90;;;;;;5055317;28;20552;-81
2021/05/23 04:10:04;;;;;;;57.53;38.47;;;10.20;99.90;;;;;;5071411;28;20044;-81
2021/05/23 04:12:34;;;;;;;59.60;38.22;;;10.20;99.90;;;;;;5056185;28;20074;-81
2021/05/23 04:15:00;;;;;;;60.85;39.75;;;10.20;99.90;;;;;;5055106;28;20607;-82
2021/05/23 04:17:28;;;;;;;63.03;40.38;;;10.30;99.90;;;;;;5058727;28;20103;-81
2021/05/23 04:19:54;;;;;;;71.68;43.90;;;10.30;99.90;;;;;;5057921;28;20070;-81
2021/05/23 04:22:20;;;;;;;64.72;40.67;;;10.30;99.90;;;;;;5056648;28;20021;-81
2021/05/23 04:24:46;;;;;;;63.40;40.85;;;10.30;99.90;;;;;;5056355;28;20498;-82
2021/05/23 04:27:11;;;;;;;64.95;41.75;;;10.30;99.90;;;;;;5071145;28;20032;-82
2021/05/23 04:29:37;;;;;;;71.03;44.63;;;10.30;99.90;;;;;;5055703;28;20134;-81
2021/05/23 04:32:05;;;;;;;71.22;47.45;;;10.40;99.90;;;;;;5054787;28;20024;-81
2021/05/23 04:34:30;;;;;;;66.43;44.22;;;10.40;99.90;;;;;;5058888;28;20503;-81
2021/05/23 04:36:56;;;;;;;67.00;41.75;;;10.40;99.90;;;;;;5057028;28;20033;-81
2021/05/23 04:39:22;;;;;;;73.55;45.97;;;10.40;99.90;;;;;;5056476;28;20105;-81
2021/05/23 04:41:48;;;;;;;67.50;42.15;;;10.30;99.90;;;;;;5058064;28;20017;-81
2021/05/23 04:44:13;;;;;;;67.32;43.03;;;10.20;99.90;;;;;;5055617;28;20375;-81
2021/05/23 04:46:39;;;;;;;76.38;47.45;;;10.20;99.90;;;;;;5055296;28;20135;-81
2021/05/23 04:49:05;;;;;;;73.50;47.20;;;10.20;99.90;;;;;;5053071;28;20057;-81
2021/05/23 04:51:30;;;;;;;69.90;44.80;;;10.20;99.90;;;;;;5058591;28;20073;-81
2021/05/23 04:53:56;;;;;;;71.63;45.38;;;10.20;99.90;;;;;;5056964;28;20476;-81
2021/05/23 04:56:21;;;;;;;80.22;48.38;;;10.20;99.90;;;;;;5056076;28;20028;-81
2021/05/23 04:58:47;;;;;;;67.70;43.80;;;10.10;99.90;;;;;;5057007;28;20032;-81
2021/05/23 05:01:13;;;;;;;70.85;44.38;;;10.10;99.90;;;;;;5053896;28;20021;-81
2021/05/23 05:03:38;;;;;;;66.65;43.30;;;10.10;99.90;;;;;;5053315;28;20112;-81
2021/05/23 05:06:04;;;;;;;75.85;47.25;;;10.10;99.90;;;;;;5057348;28;20033;-81
2021/05/23 05:08:29;;;;;;;67.88;43.40;;;10.10;99.90;;;;;;5054067;28;20471;-81
2021/05/23 05:10:55;;;;;;;70.03;44.15;;;10.00;99.90;;;;;;5055807;28;20017;-81
2021/05/23 05:13:20;;;;;;;69.28;43.08;;;10.00;99.90;;;;;;5054427;28;20497;-81
2021/05/23 05:15:46;;;;;;;65.18;42.53;;;10.00;99.90;;;;;;5057016;28;20017;-81
2021/05/23 05:18:12;;;;;;;69.05;45.40;;;10.10;99.90;;;;;;5057025;28;20487;-81
2021/05/23 05:20:38;;;;;;;72.13;46.00;;;10.10;99.90;;;;;;5055977;28;20028;-81
2021/05/23 05:23:04;;;;;;;67.07;46.85;;;10.10;99.90;;;;;;5055937;28;20484;-81
2021/05/23 05:25:29;;;;;;;72.15;46.40;;;10.10;99.90;;;;;;5055077;28;20025;-81
2021/05/23 05:27:55;;;;;;;62.08;42.92;;;10.10;99.90;;;;;;5055310;28;20105;-81
2021/05/23 05:30:21;;;;;;;67.28;44.53;;;10.20;99.90;;;;;;5053882;28;20029;-81
2021/05/23 05:32:46;;;;;;;66.88;45.58;;;10.20;99.90;;;;;;5054946;28;20017;-81
2021/05/23 05:35:12;;;;;;;65.38;45.88;;;10.20;99.90;;;;;;5055762;28;20028;-81
2021/05/23 05:37:38;;;;;;;66.25;44.05;;;10.30;99.90;;;;;;5079738;28;20056;-81
2021/05/23 05:40:05;;;;;;;62.60;42.22;;;10.20;99.90;;;;;;5062207;28;20039;-81
2021/05/23 05:42:31;;;;;;;55.17;41.50;;;10.20;99.90;;;;;;5072902;28;20025;-81
2021/05/23 05:44:56;;;;;;;56.50;39.90;;;10.20;99.90;;;;;;5073762;28;20051;-82
2021/05/23 05:47:22;;;;;;;60.30;39.88;;;10.20;99.90;;;;;;5073736;28;20063;-81
2021/05/23 05:49:48;;;;;;;49.25;34.70;;;10.30;99.90;;;;;;5072493;28;20365;-81
2021/05/23 05:52:14;;;;;;;41.97;30.00;;;10.20;99.90;;;;;;5072302;28;20033;-81
2021/05/23 05:54:39;;;;;;;43.47;29.02;;;10.20;99.90;;;;;;5072593;28;20089;-81
2021/05/23 05:57:05;;;;;;;44.08;30.23;;;10.20;99.90;;;;;;5073743;28;20436;-81
2021/05/23 05:59:30;;;;;;;44.80;27.25;;;10.20;99.90;;;;;;5072565;28;20519;-81
2021/05/23 06:01:56;;;;;;;38.20;26.15;;;10.20;99.90;;;;;;5073591;28;20054;-81
2021/05/23 06:04:21;;;;;;;38.03;25.10;;;10.20;99.90;;;;;;5072325;28;20039;-82
2021/05/23 06:06:47;;;;;;;36.63;22.65;;;10.30;99.90;;;;;;5073577;28;20031;-81
2021/05/23 06:09:13;;;;;;;31.17;20.75;;;10.30;99.90;;;;;;5073298;28;20036;-81
2021/05/23 06:11:38;;;;;;;32.47;21.80;;;10.30;99.90;;;;;;5072391;28;20017;-81
2021/05/23 06:14:04;;;;;;;22.77;18.15;;;10.30;99.90;;;;;;5073540;28;20024;-81
2021/05/23 06:16:29;;;;;;;31.00;17.23;;;10.40;99.90;;;;;;5072110;28;20158;-79
2021/05/23 06:18:55;;;;;;;27.48;17.23;;;10.40;99.90;;;;;;5072196;28;20078;-78
2021/05/23 06:21:21;;;;;;;26.98;16.00;;;10.50;99.90;;;;;;5072073;28;20081;-81
2021/05/23 06:23:46;;;;;;;21.48;15.65;;;10.50;99.90;;;;;;5073065;28;20028;-79
2021/05/23 06:26:14;;;;;;;26.02;15.85;;;10.50;99.90;;;;;;5072922;28;20055;-80
2021/05/23 06:28:40;;;;;;;31.05;15.70;;;10.50;99.90;;;;;;5072417;28;20035;-81
2021/05/23 06:31:06;;;;;;;24.65;14.95;;;10.50;99.90;;;;;;5071151;28;20464;-81
2021/05/23 06:33:32;;;;;;;30.98;16.20;;;10.50;99.90;;;;;;5072866;28;20031;-80
2021/05/23 06:35:57;;;;;;;23.80;13.93;;;10.50;99.90;;;;;;5072765;28;20020;-80
2021/05/23 06:38:23;;;;;;;25.52;14.45;;;10.60;99.90;;;;;;5072584;28;20120;-80
2021/05/23 06:40:48;;;;;;;20.98;14.20;;;10.60;99.90;;;;;;5072747;28;20095;-80
2021/05/23 06:43:14;;;;;;;26.67;13.68;;;10.60;99.90;;;;;;5073023;28;20055;-80
2021/05/23 06:45:40;;;;;;;21.15;13.27;;;10.60;99.90;;;;;;5073213;28;20468;-81
2021/05/23 06:48:05;;;;;;;21.92;12.05;;;10.60;99.90;;;;;;5073077;28;20024;-80
2021/05/23 06:50:31;;;;;;;21.17;12.73;;;10.60;99.90;;;;;;5073075;28;20024;-80
2021/05/23 06:52:56;;;;;;;20.13;11.35;;;10.60;99.90;;;;;;5073180;28;20073;-79
2021/05/23 06:55:22;;;;;;;19.85;10.93;;;10.50;99.90;;;;;;5071896;28;20040;-80
2021/05/23 06:57:47;;;;;;;20.38;10.93;;;10.50;99.90;;;;;;5071791;28;20070;-80
2021/05/23 07:00:14;;;;;;;21.35;10.60;;;10.50;99.90;;;;;;5073129;28;20086;-80
2021/05/23 07:02:39;;;;;;;16.00;8.55;;;10.50;99.90;;;;;;5072836;28;20039;-80
2021/05/23 07:05:06;;;;;;;16.52;8.98;;;10.50;99.90;;;;;;5059591;28;20434;-80
2021/05/23 07:07:34;;;;;;;16.40;8.50;;;10.50;99.90;;;;;;5072211;28;20025;-80
2021/05/23 07:09:59;;;;;;;17.85;8.77;;;10.60;99.90;;;;;;5071913;28;20047;-81
2021/05/23 07:12:25;;;;;;;11.90;8.05;;;10.50;99.90;;;;;;5071412;28;20480;-81
2021/05/23 07:14:50;;;;;;;14.23;8.45;;;10.50;99.90;;;;;;5071701;28;20025;-80
2021/05/23 07:17:16;;;;;;;12.45;7.80;;;10.50;99.90;;;;;;5068706;28;20032;-76
2021/05/23 07:19:42;;;;;;;14.88;6.30;;;10.50;99.90;;;;;;5072056;28;20021;-76
2021/05/23 07:22:07;;;;;;;20.65;8.13;;;10.60;99.90;;;;;;5071468;28;20021;-75
2021/05/23 07:24:33;;;;;;;11.18;6.70;;;10.60;99.90;;;;;;5071388;28;20025;-75
2021/05/23 07:26:58;;;;;;;22.58;7.68;;;10.70;99.90;;;;;;5071717;28;20020;-75
2021/05/23 07:29:24;;;;;;;15.93;6.43;;;10.80;99.90;;;;;;5071226;28;20857;-75
2021/05/23 07:31:49;;;;;;;13.70;6.18;;;10.80;99.90;;;;;;5071830;28;20472;-75
2021/05/23 07:34:15;;;;;;;10.50;6.25;;;10.90;99.90;;;;;;5072231;28;20095;-75
2021/05/23 07:36:41;;;;;;;13.40;6.68;;;11.00;99.90;;;;;;5070559;28;20425;-75
2021/05/23 07:39:06;;;;;;;14.00;7.07;;;11.00;99.90;;;;;;5072120;28;20070;-75
2021/05/23 07:41:32;;;;;;;15.95;7.28;;;11.10;99.90;;;;;;5074372;28;20021;-75
2021/05/23 07:43:57;;;;;;;15.20;6.75;;;11.10;99.90;;;;;;5076139;28;20024;-75
2021/05/23 07:46:23;;;;;;;11.13;6.28;;;11.20;99.90;;;;;;5074671;28;20031;-76
2021/05/23 07:48:48;;;;;;;13.05;7.07;;;11.20;99.90;;;;;;5085555;28;20497;-75
2021/05/23 07:51:14;;;;;;;15.32;6.70;;;11.20;99.90;;;;;;5093136;28;20452;-76
2021/05/23 07:53:40;;;;;;;17.13;6.93;;;11.20;99.90;;;;;;5075030;28;20021;-76
2021/05/23 07:56:06;;;;;;;18.13;7.95;;;11.20;99.90;;;;;;5075981;28;20024;-76
2021/05/23 07:58:31;;;;;;;15.60;7.50;;;11.20;99.90;;;;;;5075802;28;20438;-75
2021/05/23 08:00:57;;;;;;;17.13;7.35;;;11.10;99.90;;;;;;5076169;28;20029;-76
2021/05/23 08:03:23;;;;;;;12.73;8.45;;;11.00;99.90;;;;;;5075712;28;20032;-76
2021/05/23 08:05:48;;;;;;;16.52;8.05;;;11.00;99.90;;;;;;5069563;28;20031;-77
2021/05/23 08:08:14;;;;;;;14.68;7.97;;;11.00;99.90;;;;;;5075357;28;20037;-77
2021/05/23 08:10:40;;;;;;;14.75;8.20;;;11.00;99.90;;;;;;5075549;28;20081;-76
2021/05/23 08:13:05;;;;;;;12.02;7.40;;;11.10;99.90;;;;;;5069650;28;20021;-76
2021/05/23 08:15:32;;;;;;;15.57;7.05;;;11.10;99.90;;;;;;5073471;28;20115;-77
2021/05/23 08:17:59;;;;;;;10.93;7.00;;;11.20;99.90;;;;;;5073413;28;20021;-75
2021/05/23 08:20:25;;;;;;;11.77;6.10;;;11.20;99.90;;;;;;5075395;28;20641;-77
2021/05/23 08:22:50;;;;;;;9.70;5.93;;;11.30;99.90;;;;;;5074612;28;20021;-77
2021/05/23 08:25:16;;;;;;;13.40;5.38;;;11.40;99.90;;;;;;5066858;28;20024;-76
2021/05/23 08:27:42;;;;;;;12.00;3.85;;;11.50;99.90;;;;;;5068885;28;20089;-76
2021/05/23 08:30:11;;;;;;;10.57;4.60;;;11.60;99.90;;;;;;5061920;28;20028;-76
2021/05/23 08:32:38;;;;;;;12.23;3.42;;;11.70;99.90;;;;;;5073915;28;20044;-76
2021/05/23 08:35:06;;;;;;;8.13;2.70;;;11.80;99.90;;;;;;5073529;28;20028;-75
2021/05/23 08:37:31;;;;;;;7.38;3.33;;;11.90;99.90;;;;;;5071395;28;20043;-76
2021/05/23 08:39:57;;;;;;;13.98;3.45;;;11.90;99.90;;;;;;5074002;28;20024;-75
2021/05/23 08:42:22;;;;;;;10.27;3.38;;;11.90;99.90;;;;;;5089341;28;20028;-76
2021/05/23 08:44:49;;;;;;;9.88;3.35;;;11.90;99.90;;;;;;5073813;28;20056;-75
2021/05/23 08:47:14;;;;;;;8.82;2.67;;;11.80;99.90;;;;;;5071972;28;20083;-75
2021/05/23 08:49:40;;;;;;;9.77;2.60;;;11.90;99.10;;;;;;5071570;28;20033;-75
2021/05/23 08:52:06;;;;;;;9.40;3.08;;;11.80;99.40;;;;;;5075333;28;20525;-75
2021/05/23 08:54:37;;;;;;;10.77;2.40;;;11.90;99.40;;;;;;5068306;28;20092;-75
2021/05/23 08:57:02;;;;;;;6.07;2.42;;;12.00;99.60;;;;;;5079785;28;20024;-75
2021/05/23 08:59:28;;;;;;;9.13;3.05;;;12.00;97.00;;;;;;5073047;28;20036;-75
2021/05/23 09:02:04;;;;;;;6.38;2.08;;;12.10;96.50;;;;;;5088923;28;20052;-75
2021/05/23 09:04:29;;;;;;;9.20;1.92;;;12.30;96.90;;;;;;5073152;28;20023;-75
2021/05/23 09:07:03;;;;;;;5.80;1.88;;;12.50;96.50;;;;;;5073429;28;20025;-75
2021/05/23 09:09:29;;;;;;;5.45;1.40;;;12.70;94.00;;;;;;5073156;28;20499;-75
2021/05/23 09:12:01;;;;;;;3.13;1.27;;;12.80;92.70;;;;;;5076962;28;20107;-75
2021/05/23 09:14:35;;;;;;;3.45;0.90;;;13.00;93.30;;;;;;5074043;28;20051;-76
2021/05/23 09:17:01;;;;;;;5.28;1.60;;;13.10;91.20;;;;;;5070281;28;20028;-75
2021/05/23 09:19:27;;;;;;;4.28;1.00;;;13.00;86.20;;;;;;5071926;28;20024;-75
2021/05/23 09:21:53;;;;;;;4.47;0.95;;;13.00;90.50;;;;;;5075226;28;20031;-76
2021/05/23 09:24:19;;;;;;;7.18;1.42;;;13.00;91.20;;;;;;5085176;28;20024;-76
2021/05/23 09:26:48;;;;;;;4.80;2.10;;;12.90;90.30;;;;;;5084151;28;20020;-76
2021/05/23 09:29:18;;;;;;;9.35;2.35;;;12.80;91.20;;;;;;5054773;28;20036;-77
2021/05/23 09:31:46;;;;;;;4.30;1.65;;;12.70;91.90;;;;;;5071815;28;20025;-77
2021/05/23 09:34:20;;;;;;;8.82;1.77;;;12.60;91.30;;;;;;5069906;28;20028;-77
2021/05/23 09:36:47;;;;;;;8.23;1.60;;;12.40;91.40;;;;;;5072567;28;20025;-76
2021/05/23 09:39:13;;;;;;;7.40;2.58;;;12.30;91.50;;;;;;5086978;28;20104;-76
2021/05/23 09:41:40;;;;;;;8.15;1.95;;;12.30;92.00;;;;;;5090139;28;20028;-77
2021/05/23 09:44:21;;;;;;;7.85;2.45;;;12.60;92.90;;;;;;5087710;28;20024;-77
2021/05/23 09:47:03;;;;;;;6.57;1.85;;;13.10;92.10;;;;;;5091615;28;20024;-77
2021/05/23 09:49:40;;;;;;;11.00;2.58;;;13.30;90.50;;;;;;5089312;28;20024;-77
2021/05/23 09:52:07;;;;;;;7.03;2.33;;;13.50;91.30;;;;;;5089854;28;20380;-76
2021/05/23 09:54:47;;;;;;;6.38;2.60;;;13.60;90.80;;;;;;5072486;28;20020;-77
2021/05/23 09:57:15;;;;;;;4.63;2.45;;;13.70;87.90;;;;;;5081861;28;20027;-76
2021/05/23 09:59:41;;;;;;;7.18;3.10;;;13.40;87.90;;;;;;5077166;28;20023;-76
2021/05/23 10:02:13;;;;;;;5.82;1.85;;;13.10;89.80;;;;;;5071094;28;20450;-78
2021/05/23 10:04:40;;;;;;;8.32;2.20;;;13.00;88.50;;;;;;5071148;28;20043;-76
2021/05/23 10:07:11;;;;;;;7.35;2.17;;;12.90;90.40;;;;;;5064162;28;20049;-81
2021/05/23 10:09:38;;;;;;;7.07;2.22;;;13.50;89.70;;;;;;5070418;28;20037;-82
2021/05/23 10:12:09;;;;;;;5.63;2.35;;;13.60;87.80;;;;;;5072208;28;20017;-81
2021/05/23 10:14:36;;;;;;;8.02;1.50;;;13.30;88.30;;;;;;5070922;28;20016;-82
2021/05/23 10:17:04;;;;;;;7.43;2.55;;;13.30;89.20;;;;;;5063700;28;20079;-81
2021/05/23 10:19:31;;;;;;;5.65;1.20;;;13.30;87.30;;;;;;5070409;28;20059;-81
2021/05/23 10:21:59;;;;;;;6.40;1.40;;;13.50;83.60;;;;;;5071972;28;20017;-81
2021/05/23 10:24:37;;;;;;;4.45;1.50;;;13.50;85.40;;;;;;5071993;28;20080;-80
2021/05/23 10:27:09;;;;;;;7.95;1.50;;;13.70;84.00;;;;;;5069804;28;20024;-81
2021/05/23 10:29:38;;;;;;;7.88;1.35;;;13.80;80.10;;;;;;5070595;28;20055;-81
2021/05/23 10:32:10;;;;;;;6.83;1.80;;;14.90;82.40;;;;;;5071696;28;20484;-81
2021/05/23 10:34:46;;;;;;;5.18;1.05;;;15.50;75.20;;;;;;5071702;28;20262;-82
2021/05/23 10:37:12;;;;;;;7.03;1.45;;;15.50;72.30;;;;;;5071571;28;20028;-76
2021/05/23 10:39:47;;;;;;;6.55;1.52;;;15.10;73.70;;;;;;5071701;28;20055;-76
2021/05/23 10:42:13;;;;;;;4.57;1.23;;;15.00;72.90;;;;;;5071677;28;20025;-76
2021/05/23 10:44:43;;;;;;;6.43;1.58;;;15.00;75.00;;;;;;5071670;28;20021;-76
2021/05/23 10:47:23;;;;;;;8.05;1.80;;;15.30;73.70;;;;;;5086808;28;20113;-76
2021/05/23 10:50:08;;;;;;;7.00;1.40;;;16.50;70.00;;;;;;5071426;28;20035;-76
2021/05/23 10:52:35;;;;;;;4.00;1.38;;;17.70;68.50;;;;;;5071679;28;20020;-76
2021/05/23 10:55:12;;;;;;;5.22;1.65;;;17.20;65.00;;;;;;5071587;28;20070;-76
2021/05/23 10:57:47;;;;;;;4.75;1.50;;;16.30;67.10;;;;;;5071424;28;20056;-76
2021/05/23 11:00:22;;;;;;;6.75;1.52;;;15.70;72.90;;;;;;5070513;28;20027;-77
2021/05/23 11:02:50;;;;;;;3.00;1.10;;;15.40;69.80;;;;;;5063052;28;20020;-76
2021/05/23 11:05:27;;;;;;;7.78;1.70;;;15.20;71.10;;;;;;5065388;28;20079;-76
2021/05/23 11:07:59;;;;;;;6.15;1.33;;;15.50;70.40;;;;;;5069324;28;20012;-77
2021/05/23 11:10:46;;;;;;;3.85;1.15;;;16.70;68.80;;;;;;5071378;28;20095;-76
2021/05/23 11:13:14;;;;;;;8.85;2.08;;;17.90;65.00;;;;;;5070795;28;20576;-77
2021/05/23 11:15:48;;;;;;;3.55;1.20;;;19.20;59.80;;;;;;5070472;28;20036;-77
2021/05/23 11:18:26;;;;;;;3.47;1.30;;;19.80;55.50;;;;;;5072351;28;20020;-77
2021/05/23 11:21:02;;;;;;;5.82;1.73;;;20.20;52.80;;;;;;5090956;28;20020;-77
2021/05/23 11:23:29;;;;;;;4.88;1.27;;;20.90;53.50;;;;;;5074912;28;20016;-77
2021/05/23 11:26:04;;;;;;;4.82;1.20;;;20.80;49.80;;;;;;5075105;28;20021;-77
2021/05/23 11:28:30;;;;;;;6.88;1.30;;;20.70;54.90;;;;;;5073763;28;20016;-77
2021/05/23 11:30:55;;;;;;;7.35;1.63;;;19.90;48.80;;;;;;5074795;28;20476;-77
2021/05/23 11:33:21;;;;;;;5.55;0.75;;;18.90;50.40;;;;;;5090859;28;20029;-77
2021/05/23 11:35:49;;;;;;;2.83;1.15;;;19.20;49.20;;;;;;5074690;28;20092;-76
2021/05/23 11:38:15;;;;;;;3.40;0.80;;;20.00;49.40;;;;;;5075023;28;20056;-78
2021/05/23 11:40:42;;;;;;;2.85;1.00;;;20.60;45.70;;;;;;5074975;28;20055;-78
2021/05/23 11:43:17;;;;;;;3.70;0.93;;;20.80;46.20;;;;;;5073422;28;20028;-77
2021/05/23 11:45:52;;;;;;;1.75;0.70;;;20.70;44.00;;;;;;5073103;28;20021;-77
2021/05/23 11:48:28;;;;;;;6.82;0.93;;;19.50;48.70;;;;;;5090859;28;20074;-77
2021/05/23 11:50:54;;;;;;;3.58;1.10;;;18.60;50.70;;;;;;5075564;28;20225;-77
2021/05/23 11:53:20;;;;;;;2.13;1.00;;;18.20;50.30;;;;;;5077430;28;20565;-77
2021/05/23 11:55:51;;;;;;;5.20;1.10;;;17.70;51.90;;;;;;5078601;28;20495;-76
2021/05/23 11:58:19;;;;;;;4.72;1.50;;;17.50;53.10;;;;;;5077287;28;20066;-76
2021/05/23 12:00:45;;;;;;;2.97;0.90;;;17.40;55.10;;;;;;5076268;28;20066;-77
2021/05/23 12:03:11;;;;;;;8.85;1.20;;;18.20;55.60;;;;;;5077295;28;20017;-77
2021/05/23 12:05:37;;;;;;;3.72;1.00;;;18.90;52.00;;;;;;5077945;28;20662;-77
2021/05/23 12:08:04;;;;;;;4.90;1.05;;;19.00;51.20;;;;;;5077588;28;20016;-77
2021/05/23 12:10:30;;;;;;;3.58;1.30;;;19.10;48.10;;;;;;5072249;28;20178;-77
2021/05/23 12:12:55;;;;;;;4.07;0.90;;;18.90;47.60;;;;;;5078409;28;20127;-77
2021/05/23 12:15:22;;;;;;;3.42;0.88;;;18.80;49.40;;;;;;5076909;28;20039;-77
2021/05/23 12:17:52;;;;;;;3.83;1.08;;;19.10;47.00;;;;;;5073007;28;20025;-77
2021/05/23 12:20:18;;;;;;;2.50;0.70;;;19.20;47.80;;;;;;5071514;28;20021;-77
2021/05/23 12:22:46;;;;;;;4.35;0.90;;;19.40;48.30;;;;;;5073862;28;20073;-76
2021/05/23 12:25:14;;;;;;;2.22;0.82;;;19.50;49.10;;;;;;5071770;28;20016;-77
2021/05/23 12:27:40;;;;;;;3.83;0.70;;;19.90;48.70;;;;;;5070901;28;20028;-77
2021/05/23 12:30:12;;;;;;;5.45;0.98;;;19.80;47.90;;;;;;5073967;28;20464;-78
2021/05/23 12:32:52;;;;;;;3.97;1.08;;;19.10;47.50;;;;;;5076224;28;20020;-78
2021/05/23 12:35:26;;;;;;;3.80;1.05;;;18.50;49.80;;;;;;5086965;28;20391;-77
2021/05/23 12:37:54;;;;;;;5.10;1.30;;;18.20;50.20;;;;;;5084677;28;20036;-77
2021/05/23 12:40:30;;;;;;;4.40;1.08;;;17.50;48.10;;;;;;5088042;28;20095;-77